Time;durP1;ratioP1;P1;durP2;ratioP2;P2;SDS_P1;SDS_P2;PMS_P1;PMS_P2;Temp;Humidity;BMP_temperature;BMP_pressure;BME280_temperature;BME280_humidity;BME280_pressure;Samples;Min_cycle;Max_cycle;Signal;HPM_P1;HPM_P2
2023/11/21 00:00:26;;;;;;;6.27;1.60;;;;;;;;;;5097210;28;20620;-86
2023/11/21 00:03:31;;;;;;;5.30;1.90;;;;;;;;;;5072770;28;20214;-86
2023/11/21 00:06:35;;;;;;;7.57;1.60;;;;;;;;;;5084055;28;20179;-85
2023/11/21 00:09:39;;;;;;;5.77;2.17;;;;;;;;;;5085980;28;20179;-86
2023/11/21 00:12:43;;;;;;;8.67;2.00;;;;;;;;;;5062845;28;20214;-86
2023/11/21 00:15:48;;;;;;;5.27;1.73;;;;;;;;;;5084992;28;20512;-86
2023/11/21 00:18:52;;;;;;;7.10;1.90;;;;;;;;;;5097595;28;20182;-86
2023/11/21 00:21:57;;;;;;;6.53;1.90;;;;;;;;;;5084976;28;20218;-86
2023/11/21 00:25:03;;;;;;;4.43;1.80;;;;;;;;;;5096783;28;20702;-86
2023/11/21 00:28:08;;;;;;;6.73;1.73;;;;;;;;;;5096958;28;20179;-86
2023/11/21 00:31:13;;;;;;;3.30;1.70;;;;;;;;;;5060769;28;20182;-86
2023/11/21 00:34:17;;;;;;;3.97;1.70;;;;;;;;;;5096674;28;20175;-86
2023/11/21 00:37:21;;;;;;;6.43;1.80;;;;;;;;;;5072295;28;20627;-86
2023/11/21 00:40:26;;;;;;;7.70;1.60;;;;;;;;;;5084217;28;20174;-86
2023/11/21 00:43:30;;;;;;;6.53;1.90;;;;;;;;;;5083218;28;20222;-86
2023/11/21 00:46:34;;;;;;;5.90;2.23;;;;;;;;;;5060926;28;20661;-86
2023/11/21 00:49:39;;;;;;;6.07;2.10;;;;;;;;;;5084219;28;20183;-86
2023/11/21 00:52:43;;;;;;;4.93;2.30;;;;;;;;;;5071896;28;20214;-86
2023/11/21 00:55:47;;;;;;;5.03;1.93;;;;;;;;;;5084185;28;20190;-86
2023/11/21 00:58:52;;;;;;;7.27;2.50;;;;;;;;;;5096726;28;20179;-86
2023/11/21 01:02:00;;;;;;;7.47;2.30;;;;;;;;;;5084485;28;20250;-86
2023/11/21 01:05:04;;;;;;;7.40;2.30;;;;;;;;;;5084709;28;20210;-87
2023/11/21 01:08:08;;;;;;;6.97;2.50;;;;;;;;;;5072886;28;20187;-86
2023/11/21 01:11:12;;;;;;;7.87;2.40;;;;;;;;;;5096691;28;20179;-86
2023/11/21 01:14:17;;;;;;;7.57;2.10;;;;;;;;;;5084223;28;20179;-86
2023/11/21 01:17:22;;;;;;;5.13;1.90;;;;;;;;;;5095558;28;20539;-86
2023/11/21 01:20:26;;;;;;;6.77;2.03;;;;;;;;;;5072037;28;20183;-86
2023/11/21 01:23:30;;;;;;;7.03;2.17;;;;;;;;;;5083813;28;20226;-86
2023/11/21 01:26:34;;;;;;;7.77;2.67;;;;;;;;;;5083992;28;20535;-86
2023/11/21 01:29:39;;;;;;;8.60;2.40;;;;;;;;;;5084002;28;20187;-86
2023/11/21 01:32:44;;;;;;;4.83;2.23;;;;;;;;;;5072346;28;20214;-86
2023/11/21 01:35:48;;;;;;;7.10;2.00;;;;;;;;;;5083482;28;20178;-86
2023/11/21 01:38:52;;;;;;;7.10;1.90;;;;;;;;;;5072736;28;20175;-86
2023/11/21 01:41:58;;;;;;;4.37;1.80;;;;;;;;;;5072924;28;20575;-86
2023/11/21 01:45:04;;;;;;;6.53;1.50;;;;;;;;;;5096233;28;20206;-85
2023/11/21 01:48:09;;;;;;;5.60;1.60;;;;;;;;;;5083826;28;20183;-86
2023/11/21 01:51:13;;;;;;;4.77;1.80;;;;;;;;;;5084540;28;20539;-86
2023/11/21 01:54:18;;;;;;;4.17;1.90;;;;;;;;;;5096056;28;20179;-86
2023/11/21 01:57:22;;;;;;;6.57;2.00;;;;;;;;;;5072625;28;20183;-85
2023/11/21 02:00:26;;;;;;;5.00;2.07;;;;;;;;;;5084350;28;20183;-85
2023/11/21 02:03:33;;;;;;;3.80;1.57;;;;;;;;;;5096943;28;20575;-85
2023/11/21 02:06:38;;;;;;;6.87;1.50;;;;;;;;;;5084479;28;20206;-86
2023/11/21 02:09:42;;;;;;;3.60;1.60;;;;;;;;;;5071965;28;20174;-85
2023/11/21 02:12:50;;;;;;;5.37;1.60;;;;;;;;;;5071644;28;20214;-85
2023/11/21 02:15:54;;;;;;;5.03;1.90;;;;;;;;;;5071864;28;20624;-85
2023/11/21 02:18:59;;;;;;;9.70;1.70;;;;;;;;;;5072305;28;20175;-86
2023/11/21 02:22:06;;;;;;;2.43;1.03;;;;;;;;;;5083588;28;20214;-86
2023/11/21 02:25:11;;;;;;;3.13;1.43;;;;;;;;;;5094577;28;20230;-85
2023/11/21 02:28:18;;;;;;;6.57;1.40;;;;;;;;;;5095247;28;20183;-85
2023/11/21 02:31:22;;;;;;;5.37;1.40;;;;;;;;;;5071592;28;20179;-85
2023/11/21 02:34:27;;;;;;;4.07;1.33;;;;;;;;;;5083431;28;20183;-85
2023/11/21 02:37:31;;;;;;;9.37;1.47;;;;;;;;;;5083908;28;20175;-86
2023/11/21 02:40:35;;;;;;;6.33;1.70;;;;;;;;;;5071910;28;20620;-85
2023/11/21 02:43:39;;;;;;;2.73;1.10;;;;;;;;;;5071968;28;20694;-86
2023/11/21 02:46:44;;;;;;;4.27;1.50;;;;;;;;;;5097693;28;20207;-86
2023/11/21 02:49:48;;;;;;;5.57;1.60;;;;;;;;;;5087044;28;20183;-86
2023/11/21 02:52:53;;;;;;;5.50;1.60;;;;;;;;;;5086485;28;20218;-85
2023/11/21 02:55:58;;;;;;;5.00;1.50;;;;;;;;;;5086337;28;20175;-85
2023/11/21 02:59:04;;;;;;;6.27;1.67;;;;;;;;;;5074695;28;20175;-85
2023/11/21 03:02:08;;;;;;;3.03;1.50;;;;;;;;;;5074860;28;20210;-85
2023/11/21 03:05:12;;;;;;;5.70;1.60;;;;;;;;;;5075195;28;20210;-86
2023/11/21 03:08:17;;;;;;;6.20;1.40;;;;;;;;;;5098954;28;20187;-85
2023/11/21 03:11:21;;;;;;;6.53;1.47;;;;;;;;;;5086281;28;20187;-85
2023/11/21 03:14:25;;;;;;;5.37;1.37;;;;;;;;;;5086751;28;20187;-86
2023/11/21 03:17:30;;;;;;;8.03;1.30;;;;;;;;;;5063714;28;20179;-86
2023/11/21 03:20:34;;;;;;;5.93;1.60;;;;;;;;;;5084954;28;20179;-86
2023/11/21 03:23:39;;;;;;;2.60;1.73;;;;;;;;;;5083880;28;20222;-86
2023/11/21 03:26:46;;;;;;;6.17;1.37;;;;;;;;;;5096532;28;20207;-86
2023/11/21 03:29:50;;;;;;;4.83;1.50;;;;;;;;;;5072551;28;20627;-86
2023/11/21 03:40:03;;;;;;;;;;;;;;;;;;;;;
2023/11/21 03:44:54;;;;;;;;;;;;;;;;;;;;;
2023/11/21 03:53:56;;;;;;;4.87;1.47;;;;;;;;;;5038417;28;20220;-85
2023/11/21 03:58:45;;;;;;;;;;;;;;;;;;;;;
2023/11/21 04:08:24;;;;;;;4.20;1.20;;;;;;;;;;4962984;28;20203;-85
2023/11/21 04:12:34;;;;;;;2.23;0.97;;;;;;;;;;4963757;28;20214;-86
2023/11/21 04:16:56;;;;;;;3.00;1.20;;;;;;;;;;5055204;28;20204;-85
2023/11/21 04:21:53;;;;;;;;;;;;;;;;;;;;;
2023/11/21 04:31:55;;;;;;;5.03;1.47;;;;;;;;;;5056785;28;20180;-85
2023/11/21 04:46:35;;;;;;;2.00;1.23;;;;;;;;;;4916440;29;20583;-85
2023/11/21 04:50:40;;;;;;;;;;;;;;;;;;;;;
2023/11/21 04:55:19;;;;;;;;;;;;;;;;;;;;;
2023/11/21 04:59:28;;;;;;;6.27;1.30;;;;;;;;;;5021756;28;20188;-85
2023/11/21 05:08:58;;;;;;;;;;;;;;;;;;;;;
2023/11/21 05:13:29;;;;;;;3.67;1.30;;;;;;;;;;4955116;28;20207;-85
2023/11/21 05:22:41;;;;;;;1.70;1.13;;;;;;;;;;5055320;28;20224;-85
2023/11/21 05:27:13;;;;;;;3.93;1.33;;;;;;;;;;4995530;28;20218;-85
2023/11/21 05:31:46;;;;;;;;;;;;;;;;;;;;;
2023/11/21 05:35:41;;;;;;;3.17;1.33;;;;;;;;;;5042850;28;20172;-84
2023/11/21 05:39:27;;;;;;;1.67;1.27;;;;;;;;;;5020635;28;20172;-85
2023/11/21 05:56:41;;;;;;;5.30;1.30;;;;;;;;;;4973750;28;20203;-85
2023/11/21 05:59:45;;;;;;;8.07;1.60;;;;;;;;;;5024264;28;20191;-85
2023/11/21 06:02:51;;;;;;;3.57;1.30;;;;;;;;;;5078734;28;20215;-85
2023/11/21 06:05:55;;;;;;;3.23;1.30;;;;;;;;;;5065729;28;20208;-85
2023/11/21 06:08:59;;;;;;;8.23;1.67;;;;;;;;;;5065253;28;20175;-85
2023/11/21 06:12:04;;;;;;;3.70;1.37;;;;;;;;;;5077894;28;20211;-86
2023/11/21 06:15:09;;;;;;;3.80;1.33;;;;;;;;;;5065959;28;20179;-85
2023/11/21 06:18:14;;;;;;;6.60;2.20;;;;;;;;;;5066299;28;20180;-85
2023/11/21 06:21:18;;;;;;;6.70;1.70;;;;;;;;;;5080469;28;20526;-84
2023/11/21 06:29:13;;;;;;;6.03;1.50;;;;;;;;;;5101806;28;20187;-85
2023/11/21 06:32:17;;;;;;;4.03;1.37;;;;;;;;;;5096065;22;20242;-85
2023/11/21 06:45:59;;;;;;;13.03;4.77;;;;;;;;;;5035801;28;20172;-85
2023/11/21 07:20:33;;;;;;;2.73;1.40;;;;;;;;;;5065199;28;20203;-85
2023/11/21 07:23:38;;;;;;;4.03;1.20;;;;;;;;;;5068652;28;20579;-85
2023/11/21 07:26:42;;;;;;;4.00;1.50;;;;;;;;;;5056704;28;20212;-85
2023/11/21 07:29:48;;;;;;;3.13;1.43;;;;;;;;;;5056131;28;20192;-85
2023/11/21 07:32:52;;;;;;;2.10;1.30;;;;;;;;;;5054255;28;20554;-85
2023/11/21 07:35:56;;;;;;;2.70;1.30;;;;;;;;;;5056748;28;20621;-85
2023/11/21 07:39:02;;;;;;;2.80;1.10;;;;;;;;;;5044137;28;20176;-85
2023/11/21 07:42:06;;;;;;;6.30;2.43;;;;;;;;;;5044412;28;20215;-85
2023/11/21 07:45:11;;;;;;;5.53;2.23;;;;;;;;;;5055429;28;20572;-85
2023/11/21 07:48:15;;;;;;;3.43;1.57;;;;;;;;;;5044308;28;20173;-85
2023/11/21 07:51:20;;;;;;;4.70;1.40;;;;;;;;;;5056692;28;20180;-85
2023/11/21 07:54:24;;;;;;;2.53;1.27;;;;;;;;;;5055454;28;20180;-85
2023/11/21 07:57:28;;;;;;;2.70;1.20;;;;;;;;;;5055401;28;20177;-85
2023/11/21 08:00:33;;;;;;;3.77;1.70;;;;;;;;;;5043916;28;20180;-85
2023/11/21 08:03:37;;;;;;;4.87;1.80;;;;;;;;;;5043302;28;20216;-85
2023/11/21 08:06:41;;;;;;;3.03;1.37;;;;;;;;;;5055582;28;20518;-85
2023/11/21 08:09:47;;;;;;;4.13;1.70;;;;;;;;;;5054406;28;20546;-85
2023/11/21 08:12:52;;;;;;;3.57;1.40;;;;;;;;;;5043403;28;20212;-85
2023/11/21 08:16:01;;;;;;;2.80;1.63;;;;;;;;;;5055384;28;20184;-85
2023/11/21 08:19:06;;;;;;;3.03;1.40;;;;;;;;;;5065446;28;20201;-85
2023/11/21 08:22:10;;;;;;;1.90;1.50;;;;;;;;;;5054773;28;20216;-85
2023/11/21 08:25:14;;;;;;;3.07;1.57;;;;;;;;;;5055453;28;20184;-85
2023/11/21 08:28:18;;;;;;;4.70;1.93;;;;;;;;;;5054501;28;20216;-85
2023/11/21 08:35:12;;;;;;;3.50;1.70;;;;;;;;;;5022042;28;20543;-86
2023/11/21 08:38:16;;;;;;;5.90;2.23;;;;;;;;;;5024588;28;20181;-85
2023/11/21 08:41:23;;;;;;;4.07;2.80;;;;;;;;;;5039011;28;20185;-85
2023/11/21 08:44:27;;;;;;;7.13;3.37;;;;;;;;;;5057613;28;20181;-86
2023/11/21 08:47:31;;;;;;;6.90;3.20;;;;;;;;;;5066174;28;20216;-85
2023/11/21 08:50:35;;;;;;;5.57;2.80;;;;;;;;;;5056418;28;20176;-84
2023/11/21 08:53:40;;;;;;;4.73;2.30;;;;;;;;;;5056667;28;20216;-84
2023/11/21 08:56:44;;;;;;;5.00;2.10;;;;;;;;;;5044781;28;20542;-84
2023/11/21 08:59:48;;;;;;;5.63;2.23;;;;;;;;;;5068995;28;20645;-84
2023/11/21 09:02:52;;;;;;;3.77;1.53;;;;;;;;;;5058543;28;20349;-84
2023/11/21 09:05:57;;;;;;;4.83;1.90;;;;;;;;;;5046543;28;20180;-84
2023/11/21 09:09:00;;;;;;;4.70;1.93;;;;;;;;;;5057013;28;20176;-84
2023/11/21 09:12:06;;;;;;;6.17;1.57;;;;;;;;;;5045881;28;20220;-84
2023/11/21 09:15:11;;;;;;;3.70;1.83;;;;;;;;;;5068679;28;20180;-84
2023/11/21 09:18:16;;;;;;;3.00;2.13;;;;;;;;;;5045950;28;20629;-84
2023/11/21 09:21:20;;;;;;;6.57;2.73;;;;;;;;;;5135217;22;20233;-84
2023/11/21 09:24:25;;;;;;;2.40;1.43;;;;;;;;;;5106351;28;20174;-83
2023/11/21 09:27:29;;;;;;;2.03;1.20;;;;;;;;;;5118510;28;20198;-83
2023/11/21 09:30:35;;;;;;;4.50;1.30;;;;;;;;;;5106237;28;20213;-83
2023/11/21 09:33:39;;;;;;;1.60;1.40;;;;;;;;;;5094814;28;20178;-83
2023/11/21 09:36:47;;;;;;;3.33;1.13;;;;;;;;;;5106460;28;20174;-83
2023/11/21 09:39:51;;;;;;;4.00;1.40;;;;;;;;;;5119049;28;20213;-84
2023/11/21 09:43:44;;;;;;;3.50;1.40;;;;;;;;;;5116677;28;20178;-82
2023/11/21 09:48:07;;;;;;;3.33;1.97;;;;;;;;;;5112595;28;20206;-82
2023/11/21 09:51:25;;;;;;;8.30;4.37;;;;;;;;;;5116019;28;20567;-82
2023/11/21 09:55:56;;;;;;;2.87;1.80;;;;;;;;;;5121263;28;20198;-82
2023/11/21 10:00:58;;;;;;;18.87;11.37;;;;;;;;;;5132139;28;20217;-82
2023/11/21 10:13:07;;;;;;;43.47;18.30;;;;;;;;;;5103477;28;20185;-82
2023/11/21 10:16:16;;;;;;;55.63;24.50;;;;;;;;;;5121104;28;20184;-82
2023/11/21 10:19:21;;;;;;;10.03;5.53;;;;;;;;;;5109551;28;20179;-83
2023/11/21 10:22:26;;;;;;;8.07;4.70;;;;;;;;;;5110474;28;20171;-82
2023/11/21 10:25:31;;;;;;;3.63;1.77;;;;;;;;;;5123127;28;20174;-83
2023/11/21 10:28:37;;;;;;;4.37;2.20;;;;;;;;;;5110065;28;20198;-82
2023/11/21 10:31:42;;;;;;;8.37;2.83;;;;;;;;;;5109154;28;20210;-82
2023/11/21 10:34:56;;;;;;;7.13;4.10;;;;;;;;;;5119382;28;20174;-82
2023/11/21 10:38:00;;;;;;;7.07;4.27;;;;;;;;;;5120034;28;20170;-82
2023/11/21 10:41:12;;;;;;;4.33;3.33;;;;;;;;;;5106781;28;20217;-83
2023/11/21 10:44:21;;;;;;;3.90;2.33;;;;;;;;;;5118097;28;20174;-83
2023/11/21 10:47:26;;;;;;;6.37;1.70;;;;;;;;;;5119605;28;20203;-82
2023/11/21 10:50:32;;;;;;;3.30;2.30;;;;;;;;;;5130870;28;20214;-83
2023/11/21 10:53:42;;;;;;;5.27;2.30;;;;;;;;;;5095360;28;20182;-82
2023/11/21 10:56:56;;;;;;;5.50;3.20;;;;;;;;;;5118002;28;20178;-82
2023/11/21 11:00:01;;;;;;;4.67;2.97;;;;;;;;;;5107092;28;20213;-82
2023/11/21 11:03:05;;;;;;;3.10;2.03;;;;;;;;;;5107216;28;20182;-82
2023/11/21 11:06:11;;;;;;;9.33;4.67;;;;;;;;;;5107383;28;20174;-84
2023/11/21 11:09:17;;;;;;;7.47;4.03;;;;;;;;;;5096820;28;20174;-82
2023/11/21 11:12:22;;;;;;;7.03;4.70;;;;;;;;;;5107120;28;20178;-82
2023/11/21 11:15:27;;;;;;;5.30;2.90;;;;;;;;;;5118577;28;20178;-83
2023/11/21 11:18:31;;;;;;;5.20;3.43;;;;;;;;;;5118129;28;20546;-82
2023/11/21 11:21:58;;;;;;;5.33;2.70;;;;;;;;;;5093811;28;20217;-83
2023/11/21 11:25:13;;;;;;;7.23;2.57;;;;;;;;;;5119773;28;20163;-82
2023/11/21 11:28:21;;;;;;;5.43;2.47;;;;;;;;;;5106824;28;20195;-82
2023/11/21 11:31:51;;;;;;;4.20;2.03;;;;;;;;;;5118447;28;20214;-82
2023/11/21 11:35:10;;;;;;;2.50;1.70;;;;;;;;;;5106429;28;20174;-82
2023/11/21 11:38:15;;;;;;;1.83;1.50;;;;;;;;;;5117825;28;20171;-82
2023/11/21 11:41:34;;;;;;;3.43;1.80;;;;;;;;;;5118117;28;20210;-82
2023/11/21 11:44:51;;;;;;;2.67;1.80;;;;;;;;;;5117822;28;20171;-82
2023/11/21 11:48:02;;;;;;;3.33;1.43;;;;;;;;;;5106075;28;20198;-82
2023/11/21 11:51:21;;;;;;;2.63;1.43;;;;;;;;;;5106115;28;20205;-82
2023/11/21 11:54:43;;;;;;;3.27;1.70;;;;;;;;;;5107267;28;20182;-82
2023/11/21 11:57:50;;;;;;;2.47;1.60;;;;;;;;;;5130208;28;20170;-82
2023/11/21 12:00:55;;;;;;;4.60;1.80;;;;;;;;;;5095419;28;20213;-83
2023/11/21 12:04:16;;;;;;;4.30;1.30;;;;;;;;;;5107677;28;20166;-82
2023/11/21 12:07:23;;;;;;;2.17;1.50;;;;;;;;;;5118774;28;20199;-82
2023/11/21 12:10:33;;;;;;;3.33;1.60;;;;;;;;;;5118104;28;20206;-84
2023/11/21 12:13:38;;;;;;;3.03;1.87;;;;;;;;;;5106520;28;20174;-82
2023/11/21 12:16:43;;;;;;;4.43;1.53;;;;;;;;;;5114034;28;20178;-83
2023/11/21 12:19:47;;;;;;;3.20;1.70;;;;;;;;;;5115710;28;20221;-83
2023/11/21 12:22:59;;;;;;;2.33;1.53;;;;;;;;;;5100484;28;20174;-81
2023/11/21 12:26:03;;;;;;;2.13;1.50;;;;;;;;;;5111935;28;20221;-81
2023/11/21 12:29:08;;;;;;;2.30;1.53;;;;;;;;;;5124621;28;20202;-83
2023/11/21 12:32:13;;;;;;;6.03;2.10;;;;;;;;;;5114136;28;20182;-83
2023/11/21 12:35:22;;;;;;;6.23;2.03;;;;;;;;;;5101681;28;20170;-83
2023/11/21 12:38:35;;;;;;;31.37;18.33;;;;;;;;;;5100976;28;20178;-83
2023/11/21 12:41:39;;;;;;;31.73;20.20;;;;;;;;;;5112241;28;20224;-83
2023/11/21 12:44:47;;;;;;;4.07;3.40;;;;;;;;;;5101202;28;20178;-82
2023/11/21 12:47:57;;;;;;;9.27;3.67;;;;;;;;;;5112602;28;20205;-83
2023/11/21 12:51:02;;;;;;;7.47;2.50;;;;;;;;;;5126103;28;20209;-83
2023/11/21 12:54:09;;;;;;;4.33;2.60;;;;;;;;;;5101849;28;20174;-83
2023/11/21 12:57:13;;;;;;;4.37;3.10;;;;;;;;;;5127782;28;20182;-83
2023/11/21 13:00:28;;;;;;;5.13;3.60;;;;;;;;;;5115931;28;20214;-83
2023/11/21 13:03:32;;;;;;;7.47;4.00;;;;;;;;;;5115127;28;20194;-83
2023/11/21 13:06:40;;;;;;;6.00;3.80;;;;;;;;;;5127065;28;20170;-83
2023/11/21 13:09:44;;;;;;;14.23;7.07;;;;;;;;;;5115382;28;20225;-83
2023/11/21 13:12:51;;;;;;;6.17;3.70;;;;;;;;;;5092171;28;20185;-83
2023/11/21 13:16:05;;;;;;;4.23;2.70;;;;;;;;;;5115303;28;20178;-83
2023/11/21 13:19:10;;;;;;;30.43;17.77;;;;;;;;;;5111372;28;20638;-85
2023/11/21 13:22:14;;;;;;;25.77;10.87;;;;;;;;;;5119744;28;20170;-85
2023/11/21 13:25:19;;;;;;;10.73;4.93;;;;;;;;;;5094689;28;20178;-84
2023/11/21 13:28:26;;;;;;;10.70;3.80;;;;;;;;;;5094539;28;20210;-86
2023/11/21 13:31:32;;;;;;;6.70;3.70;;;;;;;;;;5118375;28;20210;-84
2023/11/21 13:34:44;;;;;;;7.13;3.60;;;;;;;;;;5110909;28;20182;-83
2023/11/21 13:43:37;;;;;;;7.57;5.33;;;;;;;;;;5114796;28;20204;-83
2023/11/21 13:52:33;;;;;;;6.67;3.13;;;;;;;;;;5079290;28;20205;-83
2023/11/21 13:55:39;;;;;;;4.63;3.27;;;;;;;;;;5115826;28;20174;-83
2023/11/21 13:58:52;;;;;;;9.20;3.90;;;;;;;;;;5115554;28;20170;-84
2023/11/21 14:02:11;;;;;;;5.70;4.17;;;;;;;;;;5104443;28;20174;-83
2023/11/21 14:05:21;;;;;;;9.80;6.63;;;;;;;;;;5127172;28;20534;-83
2023/11/21 14:08:28;;;;;;;11.80;6.63;;;;;;;;;;5104935;28;20218;-83
2023/11/21 14:11:34;;;;;;;5.37;4.63;;;;;;;;;;5129201;28;20548;-83
2023/11/21 14:14:39;;;;;;;8.37;5.80;;;;;;;;;;5117600;28;20182;-83
2023/11/21 14:17:44;;;;;;;6.17;4.40;;;;;;;;;;5117373;28;20183;-82
2023/11/21 14:20:48;;;;;;;6.60;4.00;;;;;;;;;;5129104;28;20225;-82
2023/11/21 14:23:54;;;;;;;7.20;5.70;;;;;;;;;;5105294;28;20178;-83
2023/11/21 14:26:59;;;;;;;5.47;4.10;;;;;;;;;;5116919;28;20178;-82
2023/11/21 14:30:05;;;;;;;5.23;4.03;;;;;;;;;;5104582;28;20218;-82
2023/11/21 14:33:11;;;;;;;7.83;4.60;;;;;;;;;;5104919;28;20182;-83
2023/11/21 14:36:17;;;;;;;9.40;4.20;;;;;;;;;;5128451;28;20178;-83
2023/11/21 14:39:26;;;;;;;5.57;4.30;;;;;;;;;;5116524;28;20171;-82
2023/11/21 14:42:30;;;;;;;6.37;4.07;;;;;;;;;;5118503;28;20170;-84
2023/11/21 14:45:35;;;;;;;6.03;3.83;;;;;;;;;;5132640;28;20174;-83
2023/11/21 14:48:42;;;;;;;6.47;4.37;;;;;;;;;;5109185;28;20202;-84
2023/11/21 14:52:19;;;;;;;5.17;4.03;;;;;;;;;;5106965;28;20170;-83
2023/11/21 14:55:31;;;;;;;6.03;4.23;;;;;;;;;;5130656;28;20174;-83
2023/11/21 14:58:37;;;;;;;6.43;4.27;;;;;;;;;;5107326;28;20166;-83
2023/11/21 15:01:57;;;;;;;4.90;3.40;;;;;;;;;;5118783;28;20217;-83
2023/11/21 15:05:02;;;;;;;4.87;3.80;;;;;;;;;;5118542;28;20178;-83
2023/11/21 15:08:21;;;;;;;4.90;3.80;;;;;;;;;;5130823;28;20178;-83
2023/11/21 15:11:30;;;;;;;6.20;4.10;;;;;;;;;;5119208;28;20206;-84
2023/11/21 15:14:35;;;;;;;5.80;3.70;;;;;;;;;;5107003;28;20187;-83
2023/11/21 15:17:42;;;;;;;7.83;3.97;;;;;;;;;;5119247;28;20570;-83
2023/11/21 15:20:46;;;;;;;5.47;3.97;;;;;;;;;;5131840;22;20223;-86
2023/11/21 15:23:51;;;;;;;5.73;3.93;;;;;;;;;;5086293;28;20174;-86
2023/11/21 15:26:55;;;;;;;4.97;3.50;;;;;;;;;;5098046;28;20178;-86
2023/11/21 15:29:59;;;;;;;6.53;4.50;;;;;;;;;;5088436;28;20234;-86
2023/11/21 15:33:03;;;;;;;9.07;5.50;;;;;;;;;;5100004;28;20182;-86
2023/11/21 15:36:09;;;;;;;8.17;6.30;;;;;;;;;;5098574;28;20179;-86
2023/11/21 15:39:13;;;;;;;9.93;6.63;;;;;;;;;;5087259;28;20167;-85
2023/11/21 15:42:17;;;;;;;15.53;7.83;;;;;;;;;;5100202;28;20179;-86
2023/11/21 15:45:24;;;;;;;9.13;5.77;;;;;;;;;;5087106;28;20183;-86
2023/11/21 15:48:30;;;;;;;9.43;4.67;;;;;;;;;;5085903;28;20202;-86
2023/11/21 15:51:36;;;;;;;5.87;4.40;;;;;;;;;;5097562;28;20211;-87
2023/11/21 15:54:40;;;;;;;6.83;4.40;;;;;;;;;;5100447;28;20179;-87
2023/11/21 15:57:44;;;;;;;6.03;4.90;;;;;;;;;;5075039;28;20175;-86
2023/11/21 16:00:48;;;;;;;7.30;5.30;;;;;;;;;;5099662;28;20714;-85
2023/11/21 16:03:53;;;;;;;7.53;5.50;;;;;;;;;;5100195;28;20179;-86
2023/11/21 16:06:59;;;;;;;9.80;5.47;;;;;;;;;;5086929;28;20187;-85
2023/11/21 16:10:04;;;;;;;7.37;5.23;;;;;;;;;;5099692;28;20226;-85
2023/11/21 16:13:08;;;;;;;6.57;4.87;;;;;;;;;;5099275;28;20171;-85
2023/11/21 16:16:13;;;;;;;9.33;6.07;;;;;;;;;;5075871;28;20179;-85
2023/11/21 16:19:17;;;;;;;8.07;5.43;;;;;;;;;;5099271;28;20639;-85
2023/11/21 16:22:21;;;;;;;8.53;5.43;;;;;;;;;;5098736;28;20167;-86
2023/11/21 16:25:25;;;;;;;7.17;5.37;;;;;;;;;;5099188;28;20558;-86
2023/11/21 16:28:29;;;;;;;7.77;5.77;;;;;;;;;;5074677;28;20631;-86
2023/11/21 16:31:34;;;;;;;7.40;5.90;;;;;;;;;;5074798;28;20214;-86
2023/11/21 16:34:38;;;;;;;6.70;4.97;;;;;;;;;;5086775;28;20187;-86
2023/11/21 16:37:43;;;;;;;5.87;4.67;;;;;;;;;;5075258;28;20175;-85
2023/11/21 16:40:48;;;;;;;7.30;5.33;;;;;;;;;;5086665;28;20566;-86
2023/11/21 16:43:52;;;;;;;7.40;5.80;;;;;;;;;;5086958;28;20563;-85
2023/11/21 16:46:57;;;;;;;8.90;5.50;;;;;;;;;;5099246;28;20175;-86
2023/11/21 16:50:01;;;;;;;6.23;5.30;;;;;;;;;;5086564;28;20226;-86
2023/11/21 16:53:07;;;;;;;6.83;5.50;;;;;;;;;;5098158;28;20179;-86
2023/11/21 16:56:11;;;;;;;7.23;5.37;;;;;;;;;;5087334;28;20181;-86
2023/11/21 16:59:16;;;;;;;7.53;5.33;;;;;;;;;;5086647;28;20178;-86
2023/11/21 17:02:20;;;;;;;8.73;5.47;;;;;;;;;;5096918;28;20174;-86
2023/11/21 17:05:25;;;;;;;6.93;5.27;;;;;;;;;;5083678;28;20179;-86
2023/11/21 17:08:29;;;;;;;8.10;5.77;;;;;;;;;;5084409;28;20174;-86
2023/11/21 17:11:33;;;;;;;8.13;6.10;;;;;;;;;;5083953;28;20578;-86
2023/11/21 17:14:39;;;;;;;8.00;5.87;;;;;;;;;;5083997;28;20174;-86
2023/11/21 17:17:44;;;;;;;10.77;8.00;;;;;;;;;;5072555;28;20178;-86
2023/11/21 17:20:48;;;;;;;14.40;9.53;;;;;;;;;;5085264;28;20218;-86
2023/11/21 17:23:52;;;;;;;12.43;9.50;;;;;;;;;;5099626;28;20178;-85
2023/11/21 17:26:56;;;;;;;11.83;8.57;;;;;;;;;;5086529;28;20175;-86
2023/11/21 17:30:01;;;;;;;10.80;6.30;;;;;;;;;;5084663;28;20218;-87
2023/11/21 17:33:06;;;;;;;8.43;6.17;;;;;;;;;;5098676;28;20179;-86
2023/11/21 17:36:13;;;;;;;7.53;5.80;;;;;;;;;;5098277;28;20171;-86
2023/11/21 17:39:17;;;;;;;9.63;6.03;;;;;;;;;;5086603;28;20243;-86
2023/11/21 17:42:22;;;;;;;6.97;5.93;;;;;;;;;;5062933;28;20623;-86
2023/11/21 17:45:26;;;;;;;7.80;5.17;;;;;;;;;;5087478;28;20196;-85
2023/11/21 17:48:30;;;;;;;146.83;44.93;;;;;;;;;;5087838;28;20183;-83
2023/11/21 17:51:39;;;;;;;28.53;12.70;;;;;;;;;;5099803;28;20575;-83
2023/11/21 17:54:43;;;;;;;12.47;7.70;;;;;;;;;;5098071;28;20175;-87
2023/11/21 17:57:47;;;;;;;6.77;5.50;;;;;;;;;;5084151;28;20174;-87
2023/11/21 18:00:52;;;;;;;9.33;5.47;;;;;;;;;;5061043;28;20214;-86
2023/11/21 18:03:56;;;;;;;10.50;5.27;;;;;;;;;;5083282;28;20180;-86
2023/11/21 18:07:01;;;;;;;6.37;5.77;;;;;;;;;;5099169;28;20179;-87
2023/11/21 18:10:09;;;;;;;10.60;6.23;;;;;;;;;;5086534;28;20226;-87
2023/11/21 18:13:13;;;;;;;6.27;5.67;;;;;;;;;;5077394;28;20171;-86
2023/11/21 18:16:18;;;;;;;7.10;5.53;;;;;;;;;;5067172;28;20667;-87
2023/11/21 18:19:22;;;;;;;8.07;5.70;;;;;;;;;;5078965;28;20171;-87
2023/11/21 18:22:27;;;;;;;7.37;5.93;;;;;;;;;;5089757;28;20183;-86
2023/11/21 18:25:31;;;;;;;7.23;5.63;;;;;;;;;;5090085;28;20174;-86
2023/11/21 18:28:39;;;;;;;8.97;5.47;;;;;;;;;;5078931;28;20182;-87
2023/11/21 18:31:43;;;;;;;8.97;5.63;;;;;;;;;;5088775;28;20228;-87
2023/11/21 18:34:48;;;;;;;6.97;5.40;;;;;;;;;;5092085;28;20171;-86
2023/11/21 18:37:52;;;;;;;8.23;5.10;;;;;;;;;;5090346;28;20170;-87
2023/11/21 18:40:57;;;;;;;6.97;4.03;;;;;;;;;;5087914;28;20210;-85
2023/11/21 18:44:01;;;;;;;5.00;3.87;;;;;;;;;;5084552;28;20174;-86
2023/11/21 18:47:06;;;;;;;6.10;3.47;;;;;;;;;;5084259;28;20187;-87
2023/11/21 18:50:17;;;;;;;4.80;3.70;;;;;;;;;;5072569;28;20226;-87
2023/11/21 18:53:22;;;;;;;4.07;3.40;;;;;;;;;;5072612;28;20554;-87
2023/11/21 18:56:26;;;;;;;6.60;4.07;;;;;;;;;;5085424;28;20182;-87
2023/11/21 18:59:30;;;;;;;5.67;3.60;;;;;;;;;;5095807;28;20179;-87
2023/11/21 19:02:35;;;;;;;4.80;3.87;;;;;;;;;;5084245;28;20178;-87
2023/11/21 19:05:39;;;;;;;6.03;4.00;;;;;;;;;;5072464;28;20638;-87
2023/11/21 19:08:43;;;;;;;6.40;4.47;;;;;;;;;;5083743;28;20175;-87
2023/11/21 19:11:48;;;;;;;7.80;5.17;;;;;;;;;;5083870;28;20698;-87
2023/11/21 19:14:52;;;;;;;6.70;5.40;;;;;;;;;;5083711;28;20178;-86
2023/11/21 19:17:58;;;;;;;7.17;5.07;;;;;;;;;;5096177;28;20186;-87
2023/11/21 19:21:03;;;;;;;5.60;4.03;;;;;;;;;;5096154;28;20571;-86
2023/11/21 19:24:07;;;;;;;5.50;3.30;;;;;;;;;;5072634;28;20174;-86
2023/11/21 19:27:12;;;;;;;4.33;3.93;;;;;;;;;;5084120;28;20175;-86
2023/11/21 19:30:16;;;;;;;33.43;14.10;;;;;;;;;;5061847;28;20455;-82
2023/11/21 19:33:20;;;;;;;6.40;5.80;;;;;;;;;;5096023;28;20175;-86
2023/11/21 19:36:24;;;;;;;4.97;4.10;;;;;;;;;;5096905;28;20171;-86
2023/11/21 19:39:28;;;;;;;4.67;3.83;;;;;;;;;;5072446;28;20187;-86
2023/11/21 19:42:36;;;;;;;3.80;3.30;;;;;;;;;;5083431;28;20179;-86
2023/11/21 19:45:40;;;;;;;5.67;3.93;;;;;;;;;;5083577;28;20179;-86
2023/11/21 19:48:45;;;;;;;4.40;4.00;;;;;;;;;;5084048;28;20183;-86
2023/11/21 19:51:50;;;;;;;5.10;4.37;;;;;;;;;;5083747;28;20560;-86
2023/11/21 19:54:54;;;;;;;4.83;4.13;;;;;;;;;;5095646;28;20516;-86
2023/11/21 19:57:58;;;;;;;6.43;4.30;;;;;;;;;;5084112;28;20171;-86
2023/11/21 20:01:02;;;;;;;4.87;4.40;;;;;;;;;;5083147;28;20214;-86
2023/11/21 20:04:09;;;;;;;4.73;4.23;;;;;;;;;;5096078;28;20182;-86
2023/11/21 20:07:15;;;;;;;6.60;4.20;;;;;;;;;;5083697;28;20183;-86
2023/11/21 20:10:20;;;;;;;6.20;3.77;;;;;;;;;;5082670;28;20261;-87
2023/11/21 20:13:25;;;;;;;5.63;3.90;;;;;;;;;;5071513;28;20175;-86
2023/11/21 20:16:29;;;;;;;5.63;3.83;;;;;;;;;;5071771;28;20179;-87
2023/11/21 20:19:33;;;;;;;7.73;3.57;;;;;;;;;;5082769;28;20180;-86
2023/11/21 20:22:37;;;;;;;9.33;4.10;;;;;;;;;;5071434;28;20171;-86
2023/11/21 20:25:41;;;;;;;4.70;3.37;;;;;;;;;;5082803;28;20175;-85
2023/11/21 20:28:45;;;;;;;5.63;3.60;;;;;;;;;;5063553;28;20183;-85
2023/11/21 20:31:49;;;;;;;6.53;3.70;;;;;;;;;;5086147;28;20226;-85
2023/11/21 20:34:54;;;;;;;4.77;3.50;;;;;;;;;;5098742;28;20182;-85
2023/11/21 20:37:58;;;;;;;6.30;4.00;;;;;;;;;;5086511;28;20179;-86
2023/11/21 20:41:02;;;;;;;5.00;3.73;;;;;;;;;;5085781;28;20206;-85
2023/11/21 20:44:07;;;;;;;6.13;3.97;;;;;;;;;;5073703;28;20174;-85
2023/11/21 20:47:11;;;;;;;10.07;4.40;;;;;;;;;;5085886;28;20178;-86
2023/11/21 20:50:17;;;;;;;5.97;4.40;;;;;;;;;;5074883;28;20222;-85
2023/11/21 20:53:21;;;;;;;6.10;4.47;;;;;;;;;;5098669;28;20175;-85
2023/11/21 20:56:26;;;;;;;9.73;5.53;;;;;;;;;;5099018;28;20178;-85
2023/11/21 20:59:30;;;;;;;9.57;5.30;;;;;;;;;;5085798;28;20178;-85
2023/11/21 21:02:33;;;;;;;9.90;5.63;;;;;;;;;;5099187;28;20628;-85
2023/11/21 21:05:38;;;;;;;8.70;5.50;;;;;;;;;;5086272;28;20175;-85
2023/11/21 21:08:42;;;;;;;6.33;5.30;;;;;;;;;;5086113;28;20175;-85
2023/11/21 21:11:46;;;;;;;10.03;5.43;;;;;;;;;;5085759;28;20702;-85
2023/11/21 21:14:51;;;;;;;9.27;6.20;;;;;;;;;;5086206;28;20643;-87
2023/11/21 21:17:57;;;;;;;7.40;5.67;;;;;;;;;;5086071;28;20175;-87